11 août 2022

Temps Code Temps Temp. Vue Base cloud Vent METAR/SPECI
19:55
V
28 °C 10 km+ - 070° 070° 6 kt METAR EHLE 111755Z AUTO 07006KT 040V100 9999 NCD 28/11 Q1020 NOSIG
19:25
V
29 °C 10 km+ - 050° 050° 10 kt METAR EHLE 111725Z AUTO 05010KT 9999 NCD 29/11 Q1020 NOSIG
18:55
V
29 °C 10 km+ - 050° 050° 11 kt METAR EHLE 111655Z AUTO 05011KT 020V080 9999 NCD 29/11 Q1020 NOSIG
18:25
V
29 °C 10 km+ - 050° 050° 13 kt METAR EHLE 111625Z AUTO 05013KT 9999 NCD 29/11 Q1020 NOSIG
17:55
V
30 °C 10 km+ - 040° 040° 11 kt METAR EHLE 111555Z AUTO 04011KT 360V080 9999 NCD 30/11 Q1020 NOSIG
17:25
V
30 °C 10 km+ - 040° 040° 14 kt METAR EHLE 111525Z AUTO 04014KT 010V070 9999 NCD 30/11 Q1020 NOSIG
16:55
V
30 °C 10 km+ - 050° 050° 10 kt METAR EHLE 111455Z AUTO 05010KT 350V100 9999 NCD 30/10 Q1021 NOSIG
16:25
V
30 °C 10 km+ - 050° 050° 10 kt METAR EHLE 111425Z AUTO 05010KT 360V100 9999 NCD 30/11 Q1021 NOSIG
15:55
V
31 °C 10 km+ - 040° 040° 9 kt METAR EHLE 111355Z AUTO 04009KT 350V080 9999 NCD 31/10 Q1021 NOSIG
14:55
V
30 °C 10 km+ - 060° 060° 8 kt METAR EHLE 111255Z AUTO 06008KT 020V120 9999 NCD 30/10 Q1021 NOSIG
14:25
V
29 °C 10 km+ - 090° 090° 7 kt METAR EHLE 111225Z AUTO 09007KT 010V140 9999 NCD 29/09 Q1022 NOSIG
13:55
V
29 °C 10 km+ - 090° 090° 7 kt METAR EHLE 111155Z AUTO 09007KT 040V150 9999 NCD 29/11 Q1022 NOSIG
13:25
V
29 °C 10 km+ - 060° 060° 8 kt METAR EHLE 111125Z AUTO 06008KT 020V130 9999 NCD 29/10 Q1022 NOSIG
12:55
V
29 °C 10 km+ - 080° 080° 7 kt METAR EHLE 111055Z AUTO 08007KT 040V120 9999 NCD 29/11 Q1022 NOSIG
12:25
V
28 °C 10 km+ - 060° 060° 6 kt METAR EHLE 111025Z AUTO 06006KT 010V110 9999 NCD 28/13 Q1023 NOSIG
11:55
V
27 °C 10 km+ - 060° 060° 5 kt METAR EHLE 110955Z AUTO 06005KT 020V110 9999 NCD 27/14 Q1023 NOSIG
11:25
V
26 °C 10 km+ - 060° 060° 6 kt METAR EHLE 110925Z AUTO 06006KT 020V110 9999 NCD 26/14 Q1023 NOSIG
10:55
V
25 °C 10 km+ - 070° 070° 5 kt METAR EHLE 110855Z AUTO 07005KT 020V110 9999 NCD 25/14 Q1023 NOSIG
10:25
V
23 °C 10 km+ - 070° 070° 6 kt METAR EHLE 110825Z AUTO 07006KT 030V100 9999 NCD 23/14 Q1023 NOSIG
09:55
V
22 °C 10 km+ - 080° 080° 6 kt METAR EHLE 110755Z AUTO 08006KT 040V110 9999 NCD 22/15 Q1023 NOSIG
09:25
V
21 °C 10 km+ - 070° 070° 7 kt METAR EHLE 110725Z AUTO 07007KT 9999 21/15 Q1023 NOSIG
08:55
V
20 °C 10 km+ - 060° 060° 6 kt METAR EHLE 110655Z AUTO 06006KT 040V100 9999 FEW015CB 20/15 Q1023 NOSIG
08:25
V
18 °C 10 km+ - 060° 060° 6 kt METAR EHLE 110625Z AUTO 06006KT 030V090 9999 18/15 Q1023 NOSIG
07:55
V
17 °C 10 km+ - 050° 050° 5 kt METAR EHLE 110555Z AUTO 05005KT 9999 FEW015CB 17/15 Q1023 NOSIG
07:25
V
16 °C 10 km+ - 040° 040° 5 kt METAR EHLE 110525Z AUTO 04005KT 9999 FEW015CB 16/15 Q1023 NOSIG
06:55
V
15 °C 10 km+ - 030° 030° 4 kt METAR EHLE 110455Z AUTO 03004KT 9999 15/14 Q1023 NOSIG
06:25
V
15 °C 10 km+ - 070° 070° 3 kt METAR EHLE 110425Z AUTO 07003KT 040V110 9999 FEW015CB 15/14 Q1023
05:55
V
15 °C 10 km+ - 060° 060° 3 kt METAR EHLE 110355Z AUTO 06003KT 020V130 9999 FEW015CB 15/14 Q1023
05:25
V
16 °C 10 km+ - 060° 060° 4 kt METAR EHLE 110325Z AUTO 06004KT 040V150 9999 FEW015CB 16/14 Q1023
04:55
V
16 °C 10 km+ - 060° 060° 5 kt METAR EHLE 110255Z AUTO 06005KT 9999 FEW015CB 16/15 Q1023
04:25
V
17 °C 10 km+ - 070° 070° 4 kt METAR EHLE 110225Z AUTO 07004KT 040V100 9999 NCD 17/15 Q1023
03:55
V
17 °C 10 km+ - 050° 050° 6 kt METAR EHLE 110155Z AUTO 05006KT 9999 NCD 17/15 Q1023
03:25
V
17 °C 10 km+ - 060° 060° 6 kt METAR EHLE 110125Z AUTO 06006KT 9999 NCD 17/15 Q1023
02:55
V
17 °C 10 km+ - 060° 060° 6 kt METAR EHLE 110055Z AUTO 06006KT 9999 NCD 17/15 Q1023
02:25
V
18 °C 10 km+ - 050° 050° 8 kt METAR EHLE 110025Z AUTO 05008KT 9999 NCD 18/16 Q1023
01:55
V
17 °C 10 km+ - 050° 050° 8 kt METAR EHLE 102355Z AUTO 05008KT 9999 NCD 17/16 Q1023
01:25
V
18 °C 10 km+ - 050° 050° 9 kt METAR EHLE 102325Z AUTO 05009KT 9999 NCD 18/16 Q1023
00:55
V
18 °C 10 km+ - 040° 040° 8 kt METAR EHLE 102255Z AUTO 04008KT 9999 NCD 18/16 Q1024
00:25
V
18 °C 10 km+ - 040° 040° 9 kt METAR EHLE 102225Z AUTO 04009KT 9999 NCD 18/16 Q1024

10 août 2022

Temps Code Temps Temp. Vue Base cloud Vent METAR/SPECI
23:55
V
19 °C 10 km+ - 040° 040° 10 kt METAR EHLE 102155Z AUTO 04010KT 9999 NCD 19/16 Q1024
23:25
V
19 °C 10 km+ - 040° 040° 10 kt METAR EHLE 102125Z AUTO 04010KT 9999 NCD 19/16 Q1024
22:55
V
20 °C 10 km+ - 040° 040° 10 kt METAR EHLE 102055Z AUTO 04010KT 9999 NCD 20/16 Q1024
22:25
V
20 °C 10 km+ - 040° 040° 9 kt METAR EHLE 102025Z AUTO 04009KT 9999 NCD 20/16 Q1024
21:55
V
20 °C 10 km+ - 040° 040° 7 kt METAR EHLE 101955Z AUTO 04007KT 9999 NCD 20/14 Q1023 NOSIG
21:25
V
22 °C 10 km+ - 040° 040° 6 kt METAR EHLE 101925Z AUTO 04006KT 9999 NCD 22/14 Q1023 NOSIG
20:55
V
23 °C 10 km+ - 040° 040° 7 kt METAR EHLE 101855Z AUTO 04007KT 9999 NCD 23/14 Q1023 NOSIG
20:25
V
25 °C 10 km+ - 040° 040° 8 kt METAR EHLE 101825Z AUTO 04008KT 9999 NCD 25/14 Q1023 NOSIG
19:55
V
26 °C 10 km+ - 040° 040° 10 kt METAR EHLE 101755Z AUTO 04010KT 9999 NCD 26/14 Q1023 NOSIG
19:25
V
27 °C 10 km+ - 040° 040° 11 kt METAR EHLE 101725Z AUTO 04011KT 9999 NCD 27/13 Q1023 NOSIG
18:55
V
27 °C 10 km+ - 050° 050° 11 kt METAR EHLE 101655Z AUTO 05011KT 020V080 9999 NCD 27/13 Q1023 NOSIG
18:25
V
28 °C 10 km+ - 050° 050° 11 kt METAR EHLE 101625Z AUTO 05011KT 010V090 9999 NCD 28/12 Q1024 NOSIG
17:55
V
28 °C 10 km+ - 040° 040° 11 kt METAR EHLE 101555Z AUTO 04011KT 010V080 9999 NCD 28/12 Q1024 NOSIG
17:25
V
28 °C 10 km+ - 040° 040° 12 kt METAR EHLE 101525Z AUTO 04012KT 010V070 9999 NCD 28/12 Q1024 NOSIG
16:55
V
28 °C 10 km+ - 040° 040° 11 kt METAR EHLE 101455Z AUTO 04011KT 360V090 9999 NCD 28/12 Q1024 NOSIG
16:25
V
28 °C 10 km+ - 040° 040° 9 kt METAR EHLE 101425Z AUTO 04009KT 010V080 9999 NCD 28/12 Q1024 NOSIG
15:55
V
28 °C 10 km+ - 040° 040° 9 kt METAR EHLE 101355Z AUTO 04009KT 360V090 9999 NCD 28/12 Q1025 NOSIG
15:25
V
27 °C 10 km+ - 080° 080° 9 kt METAR EHLE 101325Z AUTO 08009KT 040V110 9999 NCD 27/11 Q1025 NOSIG
14:55
V
28 °C 10 km+ - 050° 050° 10 kt METAR EHLE 101255Z AUTO 05010KT 360V090 9999 NCD 28/13 Q1025 NOSIG
14:25
V
27 °C 10 km+ - 060° 060° 8 kt METAR EHLE 101225Z AUTO 06008KT 030V110 9999 NCD 27/13 Q1026 NOSIG
13:55
V
27 °C 10 km+ - 050° 050° 9 kt METAR EHLE 101155Z AUTO 05009KT 010V130 9999 NCD 27/13 Q1026 NOSIG
13:25
V
26 °C 10 km+ - 070° 070° 7 kt METAR EHLE 101125Z AUTO 07007KT 010V110 9999 NCD 26/13 Q1026 NOSIG
12:55
V
26 °C 10 km+ - 070° 070° 7 kt METAR EHLE 101055Z AUTO 07007KT 020V140 9999 NCD 26/14 Q1026 NOSIG
12:25
V
25 °C 10 km+ - 070° 070° 8 kt METAR EHLE 101025Z AUTO 07008KT 020V110 9999 NCD 25/14 Q1027 NOSIG
11:55
V
24 °C 10 km+ - 060° 060° 7 kt METAR EHLE 100955Z AUTO 06007KT 010V130 9999 NCD 24/15 Q1027 NOSIG
11:25
V
23 °C 10 km+ - 050° 050° 7 kt METAR EHLE 100925Z AUTO 05007KT 020V090 9999 NCD 23/16 Q1027 NOSIG
10:55
V
22 °C 10 km+ - 040° 040° 7 kt METAR EHLE 100855Z AUTO 04007KT 360V070 9999 NCD 22/16 Q1027 NOSIG
10:25
V
21 °C 10 km+ - 040° 040° 6 kt METAR EHLE 100825Z AUTO 04006KT 010V070 9999 NCD 21/16 Q1027 NOSIG
09:55
V
21 °C 10 km+ - 060° 060° 6 kt METAR EHLE 100755Z AUTO 06006KT 030V110 9999 NCD 21/16 Q1027 NOSIG
09:25
V
19 °C 10 km+ - 060° 060° 6 kt METAR EHLE 100725Z AUTO 06006KT 030V100 9999 NSC 19/16 Q1027 NOSIG
08:55
V
18 °C 10 km+ - 050° 050° 6 kt METAR EHLE 100655Z AUTO 05006KT 030V090 9999 NSC 18/15 Q1027 NOSIG
08:25
V
17 °C 10 km+ - 050° 050° 6 kt METAR EHLE 100625Z AUTO 05006KT 9999 NSC 17/15 Q1027 NOSIG
07:55
V
16 °C 10 km+ - 050° 050° 6 kt METAR EHLE 100555Z AUTO 05006KT 9999 NSC 16/15 Q1027 NOSIG
07:25
V
15 °C 9 km - 050° 050° 6 kt METAR EHLE 100525Z AUTO 05006KT 9000 NSC 15/14 Q1027 NOSIG
06:55
V
14 °C 8 km - 050° 050° 4 kt METAR EHLE 100455Z AUTO 05004KT 8000 NSC 14/13 Q1027 NOSIG
06:25
V
14 °C 10 km+ - 050° 050° 5 kt METAR EHLE 100425Z AUTO 05005KT 9999 NSC 14/13 Q1027
05:55
V
13 °C 10 km+ - 050° 050° 5 kt METAR EHLE 100355Z AUTO 05005KT 9999 NCD 13/12 Q1027
05:25
V
14 °C 10 km+ - 060° 060° 6 kt METAR EHLE 100325Z AUTO 06006KT 9999 NCD 14/13 Q1027
04:55
V
14 °C 10 km+ - 050° 050° 7 kt METAR EHLE 100255Z AUTO 05007KT 9999 NSC 14/13 Q1028
04:25
V
15 °C 10 km+ - 060° 060° 7 kt METAR EHLE 100225Z AUTO 06007KT 9999 NCD 15/13 Q1027
03:55
V
14 °C 10 km+ - 050° 050° 6 kt METAR EHLE 100155Z AUTO 05006KT 9999 NCD 14/13 Q1028
03:25
V
14 °C 10 km+ - 050° 050° 6 kt METAR EHLE 100125Z AUTO 05006KT 9999 NCD 14/13 Q1028
02:55
V
14 °C 10 km+ - 050° 050° 7 kt METAR EHLE 100055Z AUTO 05007KT 9999 NCD 14/12 Q1028
02:25
V
14 °C 10 km+ - 050° 050° 7 kt METAR EHLE 100025Z AUTO 05007KT 9999 NCD 14/12 Q1028
01:55
V
14 °C 10 km+ - 040° 040° 5 kt METAR EHLE 092355Z AUTO 04005KT 9999 NCD 14/12 Q1028
01:25
V
15 °C 10 km+ - 050° 050° 8 kt METAR EHLE 092325Z AUTO 05008KT 9999 NCD 15/12 Q1028
00:55
V
16 °C 10 km+ - 050° 050° 9 kt METAR EHLE 092255Z AUTO 05009KT 9999 NSC 16/12 Q1028
00:25
V
16 °C 10 km+ - 040° 040° 9 kt METAR EHLE 092225Z AUTO 04009KT 9999 NSC 16/12 Q1028

9 août 2022

Temps Code Temps Temp. Vue Base cloud Vent METAR/SPECI
23:55
V
16 °C 10 km+ - 040° 040° 9 kt METAR EHLE 092155Z AUTO 04009KT 9999 NCD 16/12 Q1028
23:25
V
17 °C 10 km+ - 050° 050° 10 kt METAR EHLE 092125Z AUTO 05010KT 9999 NSC 17/12 Q1028
22:55
V
17 °C 10 km+ - 040° 040° 9 kt METAR EHLE 092055Z AUTO 04009KT 9999 NSC 17/13 Q1028
22:25
V
18 °C 10 km+ - 030° 030° 10 kt METAR EHLE 092025Z AUTO 03010KT 9999 NSC 18/13 Q1028
21:55
V
18 °C 10 km+ - 030° 030° 8 kt METAR EHLE 091955Z AUTO 03008KT 9999 NCD 18/14 Q1028
21:25
V
19 °C 10 km+ - 040° 040° 9 kt METAR EHLE 091925Z AUTO 04009KT 9999 NCD 19/14 Q1027 NOSIG
20:55
V
21 °C 10 km+ - 040° 040° 9 kt METAR EHLE 091855Z AUTO 04009KT 360V060 9999 NCD 21/15 Q1027 NOSIG
20:25
V
22 °C 10 km+ - 020° 020° 13 kt METAR EHLE 091825Z AUTO 02013KT 9999 NSC 22/14 Q1027 NOSIG
19:55
V
23 °C 10 km+ - 020° 020° 12 kt METAR EHLE 091755Z AUTO 02012KT 9999 NCD 23/15 Q1027 NOSIG
19:25
V
24 °C 10 km+ - 030° 030° 12 kt METAR EHLE 091725Z AUTO 03012KT 350V060 9999 NCD 24/15 Q1027 NOSIG
18:55
V
24 °C 10 km+ - 010° 010° 9 kt METAR EHLE 091655Z AUTO 01009KT 340V050 9999 NCD 24/15 Q1027 NOSIG
18:25
V
25 °C 10 km+ - 020° 020° 10 kt METAR EHLE 091625Z AUTO 02010KT 350V050 9999 NSC 25/15 Q1027 NOSIG
17:55
V
25 °C 10 km+ - 030° 030° 11 kt METAR EHLE 091555Z AUTO 03011KT 360V060 9999 NCD 25/15 Q1027 NOSIG
17:25
V
24 °C 10 km+ - 010° 010° 9 kt METAR EHLE 091525Z AUTO 01009KT 320V040 9999 NSC 24/16 Q1027 NOSIG
16:55
V
24 °C 10 km+ - 350° 350° 11 kt METAR EHLE 091455Z AUTO 35011KT 320V030 9999 NCD 24/16 Q1028 NOSIG
Données plus anciennes

Nous et des tiers suivons ton comportement sur Internet sur notre site Web à l'aide de cookies. Si tu continues, nous supposons que tu acceptes notre politique en matière de cookies. Apprendre plus